sensor_id;sensor_type;location;lat;lon;timestamp;P1;durP1;ratioP1;P2;durP2;ratioP2
20185;SDS011;10252;48.792;8.582;2022-09-09T00:03:43;5.47;;;1.55;;
20185;SDS011;10252;48.792;8.582;2022-09-09T00:13:52;2.40;;;1.55;;
20185;SDS011;10252;48.792;8.582;2022-09-09T00:24:10;4.57;;;1.92;;
20185;SDS011;10252;48.792;8.582;2022-09-09T00:29:33;3.78;;;1.52;;
20185;SDS011;10252;48.792;8.582;2022-09-09T00:34:37;2.80;;;1.50;;
20185;SDS011;10252;48.792;8.582;2022-09-09T00:39:46;4.07;;;1.63;;
20185;SDS011;10252;48.792;8.582;2022-09-09T00:55:01;8.60;;;1.77;;
20185;SDS011;10252;48.792;8.582;2022-09-09T01:05:24;3.72;;;1.80;;
20185;SDS011;10252;48.792;8.582;2022-09-09T01:10:46;3.55;;;1.70;;
20185;SDS011;10252;48.792;8.582;2022-09-09T01:15:50;4.22;;;1.58;;
20185;SDS011;10252;48.792;8.582;2022-09-09T01:31:22;4.22;;;1.30;;
20185;SDS011;10252;48.792;8.582;2022-09-09T01:36:29;4.45;;;1.75;;
20185;SDS011;10252;48.792;8.582;2022-09-09T01:41:34;3.97;;;1.55;;
20185;SDS011;10252;48.792;8.582;2022-09-09T01:46:38;4.40;;;1.67;;
20185;SDS011;10252;48.792;8.582;2022-09-09T01:51:46;4.22;;;1.67;;
20185;SDS011;10252;48.792;8.582;2022-09-09T02:07:11;5.50;;;1.52;;
20185;SDS011;10252;48.792;8.582;2022-09-09T02:12:16;3.90;;;1.90;;
20185;SDS011;10252;48.792;8.582;2022-09-09T02:17:27;4.03;;;1.88;;
20185;SDS011;10252;48.792;8.582;2022-09-09T02:22:39;4.85;;;1.98;;
20185;SDS011;10252;48.792;8.582;2022-09-09T02:27:43;3.38;;;1.67;;
20185;SDS011;10252;48.792;8.582;2022-09-09T02:32:46;5.40;;;1.50;;
20185;SDS011;10252;48.792;8.582;2022-09-09T02:37:50;4.97;;;1.60;;
20185;SDS011;10252;48.792;8.582;2022-09-09T02:42:54;3.95;;;1.65;;
20185;SDS011;10252;48.792;8.582;2022-09-09T02:53:15;7.40;;;1.75;;
20185;SDS011;10252;48.792;8.582;2022-09-09T02:58:19;3.60;;;1.48;;
20185;SDS011;10252;48.792;8.582;2022-09-09T03:03:30;5.03;;;1.65;;
20185;SDS011;10252;48.792;8.582;2022-09-09T03:08:33;2.83;;;1.98;;
20185;SDS011;10252;48.792;8.582;2022-09-09T03:13:35;1.98;;;1.58;;
20185;SDS011;10252;48.792;8.582;2022-09-09T03:18:38;4.47;;;1.52;;
20185;SDS011;10252;48.792;8.582;2022-09-09T03:23:39;2.75;;;1.27;;
20185;SDS011;10252;48.792;8.582;2022-09-09T03:28:40;3.50;;;1.55;;
20185;SDS011;10252;48.792;8.582;2022-09-09T03:33:42;2.72;;;1.38;;
20185;SDS011;10252;48.792;8.582;2022-09-09T03:38:46;4.35;;;1.10;;
20185;SDS011;10252;48.792;8.582;2022-09-09T03:43:48;4.18;;;1.25;;
20185;SDS011;10252;48.792;8.582;2022-09-09T03:48:49;3.55;;;1.05;;
20185;SDS011;10252;48.792;8.582;2022-09-09T03:53:52;4.60;;;1.30;;
20185;SDS011;10252;48.792;8.582;2022-09-09T03:58:55;5.13;;;1.30;;
20185;SDS011;10252;48.792;8.582;2022-09-09T04:03:57;1.80;;;1.20;;
20185;SDS011;10252;48.792;8.582;2022-09-09T04:08:59;3.97;;;1.23;;
20185;SDS011;10252;48.792;8.582;2022-09-09T04:14:04;2.83;;;1.33;;
20185;SDS011;10252;48.792;8.582;2022-09-09T04:19:06;1.17;;;1.10;;
20185;SDS011;10252;48.792;8.582;2022-09-09T04:24:08;2.97;;;1.10;;
20185;SDS011;10252;48.792;8.582;2022-09-09T04:29:10;3.10;;;1.75;;
20185;SDS011;10252;48.792;8.582;2022-09-09T04:34:12;1.73;;;1.55;;
20185;SDS011;10252;48.792;8.582;2022-09-09T04:39:14;2.28;;;1.52;;
20185;SDS011;10252;48.792;8.582;2022-09-09T04:44:15;1.85;;;1.38;;
20185;SDS011;10252;48.792;8.582;2022-09-09T04:49:16;7.50;;;1.63;;
20185;SDS011;10252;48.792;8.582;2022-09-09T04:54:18;2.10;;;1.48;;
20185;SDS011;10252;48.792;8.582;2022-09-09T04:59:19;4.00;;;1.20;;
20185;SDS011;10252;48.792;8.582;2022-09-09T05:04:26;1.75;;;1.33;;
20185;SDS011;10252;48.792;8.582;2022-09-09T05:09:28;4.85;;;1.63;;
20185;SDS011;10252;48.792;8.582;2022-09-09T05:14:30;2.85;;;1.38;;
20185;SDS011;10252;48.792;8.582;2022-09-09T05:19:33;4.32;;;1.50;;
20185;SDS011;10252;48.792;8.582;2022-09-09T05:24:35;1.88;;;1.17;;
20185;SDS011;10252;48.792;8.582;2022-09-09T05:29:38;3.80;;;1.38;;
20185;SDS011;10252;48.792;8.582;2022-09-09T05:34:42;1.42;;;0.85;;
20185;SDS011;10252;48.792;8.582;2022-09-09T05:39:44;1.75;;;1.10;;
20185;SDS011;10252;48.792;8.582;2022-09-09T05:44:46;1.35;;;0.90;;
20185;SDS011;10252;48.792;8.582;2022-09-09T05:49:47;3.72;;;1.10;;
20185;SDS011;10252;48.792;8.582;2022-09-09T05:54:48;1.48;;;0.88;;
20185;SDS011;10252;48.792;8.582;2022-09-09T05:59:50;2.05;;;1.20;;
20185;SDS011;10252;48.792;8.582;2022-09-09T06:04:51;3.50;;;1.00;;
20185;SDS011;10252;48.792;8.582;2022-09-09T06:09:52;2.33;;;1.10;;
20185;SDS011;10252;48.792;8.582;2022-09-09T06:14:54;1.95;;;1.40;;
20185;SDS011;10252;48.792;8.582;2022-09-09T06:19:56;2.53;;;1.30;;
20185;SDS011;10252;48.792;8.582;2022-09-09T06:24:58;1.33;;;1.15;;
20185;SDS011;10252;48.792;8.582;2022-09-09T06:30:02;3.45;;;1.38;;
20185;SDS011;10252;48.792;8.582;2022-09-09T06:35:04;5.72;;;1.70;;
20185;SDS011;10252;48.792;8.582;2022-09-09T06:40:05;1.83;;;1.33;;
20185;SDS011;10252;48.792;8.582;2022-09-09T06:45:07;4.05;;;1.30;;
20185;SDS011;10252;48.792;8.582;2022-09-09T06:50:15;2.88;;;1.35;;
20185;SDS011;10252;48.792;8.582;2022-09-09T06:55:17;1.52;;;1.05;;
20185;SDS011;10252;48.792;8.582;2022-09-09T07:00:18;2.67;;;0.98;;
20185;SDS011;10252;48.792;8.582;2022-09-09T07:05:19;2.35;;;1.00;;
20185;SDS011;10252;48.792;8.582;2022-09-09T07:10:21;2.03;;;1.10;;
20185;SDS011;10252;48.792;8.582;2022-09-09T07:15:22;2.85;;;1.20;;
20185;SDS011;10252;48.792;8.582;2022-09-09T07:20:23;4.13;;;1.40;;
20185;SDS011;10252;48.792;8.582;2022-09-09T07:25:25;2.97;;;1.15;;
20185;SDS011;10252;48.792;8.582;2022-09-09T07:30:31;4.00;;;1.00;;
20185;SDS011;10252;48.792;8.582;2022-09-09T07:35:32;4.55;;;1.75;;
20185;SDS011;10252;48.792;8.582;2022-09-09T07:40:33;2.72;;;0.70;;
20185;SDS011;10252;48.792;8.582;2022-09-09T07:45:37;1.67;;;0.80;;
20185;SDS011;10252;48.792;8.582;2022-09-09T07:50:38;2.95;;;0.90;;
20185;SDS011;10252;48.792;8.582;2022-09-09T07:55:39;2.72;;;1.00;;
20185;SDS011;10252;48.792;8.582;2022-09-09T08:00:41;5.60;;;1.40;;
20185;SDS011;10252;48.792;8.582;2022-09-09T08:05:44;2.42;;;0.90;;
20185;SDS011;10252;48.792;8.582;2022-09-09T08:10:45;3.15;;;1.10;;
20185;SDS011;10252;48.792;8.582;2022-09-09T08:15:47;2.45;;;0.90;;
20185;SDS011;10252;48.792;8.582;2022-09-09T08:20:50;1.13;;;0.90;;
20185;SDS011;10252;48.792;8.582;2022-09-09T08:25:51;3.17;;;1.08;;
20185;SDS011;10252;48.792;8.582;2022-09-09T08:30:53;3.60;;;0.80;;
20185;SDS011;10252;48.792;8.582;2022-09-09T08:35:54;6.82;;;1.30;;
20185;SDS011;10252;48.792;8.582;2022-09-09T08:40:59;2.05;;;1.05;;
20185;SDS011;10252;48.792;8.582;2022-09-09T08:46:20;2.33;;;0.80;;
20185;SDS011;10252;48.792;8.582;2022-09-09T08:51:25;3.83;;;1.02;;
20185;SDS011;10252;48.792;8.582;2022-09-09T08:56:27;4.45;;;1.27;;
20185;SDS011;10252;48.792;8.582;2022-09-09T09:01:47;4.85;;;0.90;;
20185;SDS011;10252;48.792;8.582;2022-09-09T09:12:00;3.33;;;0.70;;
20185;SDS011;10252;48.792;8.582;2022-09-09T09:17:11;2.78;;;0.70;;
20185;SDS011;10252;48.792;8.582;2022-09-09T09:22:16;3.47;;;0.82;;
20185;SDS011;10252;48.792;8.582;2022-09-09T09:32:30;5.05;;;1.00;;
20185;SDS011;10252;48.792;8.582;2022-09-09T09:37:34;3.47;;;0.90;;
20185;SDS011;10252;48.792;8.582;2022-09-09T09:42:37;3.13;;;0.90;;
20185;SDS011;10252;48.792;8.582;2022-09-09T09:47:39;4.25;;;1.13;;
20185;SDS011;10252;48.792;8.582;2022-09-09T09:58:19;5.45;;;1.02;;
20185;SDS011;10252;48.792;8.582;2022-09-09T10:03:21;4.95;;;1.42;;
20185;SDS011;10252;48.792;8.582;2022-09-09T10:08:25;4.75;;;1.10;;
20185;SDS011;10252;48.792;8.582;2022-09-09T10:18:35;5.82;;;1.00;;
20185;SDS011;10252;48.792;8.582;2022-09-09T10:29:20;4.68;;;0.85;;
20185;SDS011;10252;48.792;8.582;2022-09-09T10:39:42;5.15;;;0.93;;
20185;SDS011;10252;48.792;8.582;2022-09-09T10:44:47;4.15;;;1.10;;
20185;SDS011;10252;48.792;8.582;2022-09-09T10:55:00;5.35;;;1.38;;
20185;SDS011;10252;48.792;8.582;2022-09-09T11:00:06;3.13;;;1.00;;
20185;SDS011;10252;48.792;8.582;2022-09-09T11:10:16;2.47;;;0.90;;
20185;SDS011;10252;48.792;8.582;2022-09-09T11:20:38;2.55;;;0.80;;
20185;SDS011;10252;48.792;8.582;2022-09-09T11:25:40;1.40;;;0.90;;
20185;SDS011;10252;48.792;8.582;2022-09-09T11:40:59;1.65;;;0.80;;
20185;SDS011;10252;48.792;8.582;2022-09-09T11:46:02;1.95;;;0.60;;
20185;SDS011;10252;48.792;8.582;2022-09-09T11:51:45;4.18;;;0.88;;
20185;SDS011;10252;48.792;8.582;2022-09-09T12:01:33;2.50;;;1.17;;
20185;SDS011;10252;48.792;8.582;2022-09-09T12:06:42;2.92;;;0.70;;
20185;SDS011;10252;48.792;8.582;2022-09-09T12:11:43;2.25;;;0.60;;
20185;SDS011;10252;48.792;8.582;2022-09-09T12:16:44;1.70;;;0.73;;
20185;SDS011;10252;48.792;8.582;2022-09-09T12:21:51;2.65;;;0.77;;
20185;SDS011;10252;48.792;8.582;2022-09-09T12:37:05;1.67;;;1.02;;
20185;SDS011;10252;48.792;8.582;2022-09-09T12:42:15;1.75;;;0.50;;
20185;SDS011;10252;48.792;8.582;2022-09-09T12:47:16;2.95;;;0.88;;
20185;SDS011;10252;48.792;8.582;2022-09-09T12:52:24;2.30;;;0.60;;
20185;SDS011;10252;48.792;8.582;2022-09-09T12:57:28;2.40;;;0.63;;
20185;SDS011;10252;48.792;8.582;2022-09-09T13:02:30;7.25;;;1.25;;
20185;SDS011;10252;48.792;8.582;2022-09-09T13:07:32;1.75;;;0.80;;
20185;SDS011;10252;48.792;8.582;2022-09-09T13:12:33;2.47;;;0.70;;
20185;SDS011;10252;48.792;8.582;2022-09-09T13:17:34;1.98;;;0.52;;
20185;SDS011;10252;48.792;8.582;2022-09-09T13:22:36;6.05;;;0.80;;
20185;SDS011;10252;48.792;8.582;2022-09-09T13:27:39;2.45;;;0.60;;
20185;SDS011;10252;48.792;8.582;2022-09-09T13:32:41;5.90;;;0.77;;
20185;SDS011;10252;48.792;8.582;2022-09-09T13:37:42;1.77;;;0.70;;
20185;SDS011;10252;48.792;8.582;2022-09-09T13:42:44;3.88;;;1.10;;
20185;SDS011;10252;48.792;8.582;2022-09-09T13:47:45;1.17;;;0.60;;
20185;SDS011;10252;48.792;8.582;2022-09-09T13:52:48;4.03;;;0.65;;
20185;SDS011;10252;48.792;8.582;2022-09-09T14:02:52;2.40;;;0.77;;
20185;SDS011;10252;48.792;8.582;2022-09-09T14:07:55;1.77;;;0.95;;
20185;SDS011;10252;48.792;8.582;2022-09-09T14:12:56;2.78;;;0.70;;
20185;SDS011;10252;48.792;8.582;2022-09-09T14:17:57;1.52;;;0.68;;
20185;SDS011;10252;48.792;8.582;2022-09-09T14:22:58;2.75;;;0.70;;
20185;SDS011;10252;48.792;8.582;2022-09-09T14:28:00;0.73;;;0.40;;
20185;SDS011;10252;48.792;8.582;2022-09-09T14:33:02;3.33;;;0.95;;
20185;SDS011;10252;48.792;8.582;2022-09-09T14:38:04;1.75;;;0.30;;
20185;SDS011;10252;48.792;8.582;2022-09-09T14:43:05;3.75;;;0.95;;
20185;SDS011;10252;48.792;8.582;2022-09-09T14:48:06;1.58;;;0.60;;
20185;SDS011;10252;48.792;8.582;2022-09-09T14:53:07;1.48;;;0.45;;
20185;SDS011;10252;48.792;8.582;2022-09-09T14:58:10;1.52;;;0.60;;
20185;SDS011;10252;48.792;8.582;2022-09-09T15:03:11;3.17;;;0.70;;
20185;SDS011;10252;48.792;8.582;2022-09-09T15:08:12;2.00;;;0.65;;
20185;SDS011;10252;48.792;8.582;2022-09-09T15:13:14;1.73;;;0.80;;
20185;SDS011;10252;48.792;8.582;2022-09-09T15:18:17;1.80;;;0.80;;
20185;SDS011;10252;48.792;8.582;2022-09-09T15:23:18;3.38;;;0.60;;
20185;SDS011;10252;48.792;8.582;2022-09-09T15:28:19;1.30;;;0.50;;
20185;SDS011;10252;48.792;8.582;2022-09-09T15:33:21;1.77;;;0.63;;
20185;SDS011;10252;48.792;8.582;2022-09-09T15:38:22;2.65;;;0.82;;
20185;SDS011;10252;48.792;8.582;2022-09-09T15:43:24;2.25;;;0.77;;
20185;SDS011;10252;48.792;8.582;2022-09-09T15:48:32;2.33;;;0.57;;
20185;SDS011;10252;48.792;8.582;2022-09-09T15:53:33;2.33;;;0.60;;
20185;SDS011;10252;48.792;8.582;2022-09-09T15:58:34;2.08;;;1.10;;
20185;SDS011;10252;48.792;8.582;2022-09-09T16:03:36;4.05;;;1.13;;
20185;SDS011;10252;48.792;8.582;2022-09-09T16:08:39;3.60;;;0.90;;
20185;SDS011;10252;48.792;8.582;2022-09-09T16:13:41;3.05;;;0.95;;
20185;SDS011;10252;48.792;8.582;2022-09-09T16:18:43;2.83;;;0.98;;
20185;SDS011;10252;48.792;8.582;2022-09-09T16:23:45;5.95;;;1.00;;
20185;SDS011;10252;48.792;8.582;2022-09-09T16:28:46;1.20;;;0.55;;
20185;SDS011;10252;48.792;8.582;2022-09-09T16:33:48;4.97;;;0.70;;
20185;SDS011;10252;48.792;8.582;2022-09-09T16:38:53;2.55;;;1.20;;
20185;SDS011;10252;48.792;8.582;2022-09-09T16:43:59;4.90;;;0.70;;
20185;SDS011;10252;48.792;8.582;2022-09-09T16:49:01;1.80;;;0.60;;
20185;SDS011;10252;48.792;8.582;2022-09-09T16:54:03;5.32;;;1.00;;
20185;SDS011;10252;48.792;8.582;2022-09-09T16:59:08;1.33;;;0.73;;
20185;SDS011;10252;48.792;8.582;2022-09-09T17:04:11;1.80;;;0.90;;
20185;SDS011;10252;48.792;8.582;2022-09-09T17:09:13;5.10;;;1.13;;
20185;SDS011;10252;48.792;8.582;2022-09-09T17:14:16;2.60;;;1.10;;
20185;SDS011;10252;48.792;8.582;2022-09-09T17:19:17;3.33;;;0.90;;
20185;SDS011;10252;48.792;8.582;2022-09-09T17:24:19;6.60;;;1.65;;
20185;SDS011;10252;48.792;8.582;2022-09-09T17:29:21;3.50;;;0.85;;
20185;SDS011;10252;48.792;8.582;2022-09-09T17:34:22;2.92;;;0.90;;
20185;SDS011;10252;48.792;8.582;2022-09-09T17:39:24;4.72;;;1.88;;
20185;SDS011;10252;48.792;8.582;2022-09-09T17:44:25;3.63;;;1.05;;
20185;SDS011;10252;48.792;8.582;2022-09-09T17:49:26;4.05;;;2.13;;
20185;SDS011;10252;48.792;8.582;2022-09-09T17:54:27;1.70;;;1.60;;
20185;SDS011;10252;48.792;8.582;2022-09-09T17:59:28;3.03;;;1.08;;
20185;SDS011;10252;48.792;8.582;2022-09-09T18:04:30;2.60;;;1.65;;
20185;SDS011;10252;48.792;8.582;2022-09-09T18:09:32;1.52;;;0.95;;
20185;SDS011;10252;48.792;8.582;2022-09-09T18:14:33;2.95;;;0.93;;
20185;SDS011;10252;48.792;8.582;2022-09-09T18:19:34;3.60;;;1.30;;
20185;SDS011;10252;48.792;8.582;2022-09-09T18:24:36;2.88;;;1.25;;
20185;SDS011;10252;48.792;8.582;2022-09-09T18:29:37;1.25;;;0.90;;
20185;SDS011;10252;48.792;8.582;2022-09-09T18:34:38;2.45;;;0.90;;
20185;SDS011;10252;48.792;8.582;2022-09-09T18:39:39;2.75;;;1.30;;
20185;SDS011;10252;48.792;8.582;2022-09-09T18:44:40;3.97;;;1.40;;
20185;SDS011;10252;48.792;8.582;2022-09-09T18:49:42;2.15;;;1.00;;
20185;SDS011;10252;48.792;8.582;2022-09-09T18:54:45;2.53;;;1.00;;
20185;SDS011;10252;48.792;8.582;2022-09-09T18:59:47;2.30;;;1.33;;
20185;SDS011;10252;48.792;8.582;2022-09-09T19:04:48;2.25;;;1.38;;
20185;SDS011;10252;48.792;8.582;2022-09-09T19:09:49;3.80;;;1.48;;
20185;SDS011;10252;48.792;8.582;2022-09-09T19:14:50;2.75;;;1.40;;
20185;SDS011;10252;48.792;8.582;2022-09-09T19:19:51;1.50;;;1.40;;
20185;SDS011;10252;48.792;8.582;2022-09-09T19:24:53;2.00;;;1.50;;
20185;SDS011;10252;48.792;8.582;2022-09-09T19:29:55;3.67;;;1.70;;
20185;SDS011;10252;48.792;8.582;2022-09-09T19:34:56;3.25;;;1.63;;
20185;SDS011;10252;48.792;8.582;2022-09-09T19:39:57;6.03;;;1.80;;
20185;SDS011;10252;48.792;8.582;2022-09-09T19:44:58;1.92;;;1.70;;
20185;SDS011;10252;48.792;8.582;2022-09-09T19:50:00;4.07;;;2.08;;
20185;SDS011;10252;48.792;8.582;2022-09-09T19:55:03;4.25;;;2.03;;
20185;SDS011;10252;48.792;8.582;2022-09-09T20:00:05;1.83;;;1.50;;
20185;SDS011;10252;48.792;8.582;2022-09-09T20:05:12;2.47;;;1.60;;
20185;SDS011;10252;48.792;8.582;2022-09-09T20:10:13;1.83;;;1.52;;
20185;SDS011;10252;48.792;8.582;2022-09-09T20:15:14;2.22;;;1.70;;
20185;SDS011;10252;48.792;8.582;2022-09-09T20:20:15;3.33;;;1.48;;
20185;SDS011;10252;48.792;8.582;2022-09-09T20:25:16;3.03;;;1.75;;
20185;SDS011;10252;48.792;8.582;2022-09-09T20:30:17;1.67;;;1.38;;
20185;SDS011;10252;48.792;8.582;2022-09-09T20:35:18;2.67;;;1.40;;
20185;SDS011;10252;48.792;8.582;2022-09-09T20:40:19;2.55;;;1.65;;
20185;SDS011;10252;48.792;8.582;2022-09-09T20:45:21;4.32;;;1.70;;
20185;SDS011;10252;48.792;8.582;2022-09-09T20:50:23;3.28;;;2.10;;
20185;SDS011;10252;48.792;8.582;2022-09-09T20:55:24;2.53;;;1.88;;
20185;SDS011;10252;48.792;8.582;2022-09-09T21:00:26;2.08;;;1.52;;
20185;SDS011;10252;48.792;8.582;2022-09-09T21:05:29;4.15;;;1.80;;
20185;SDS011;10252;48.792;8.582;2022-09-09T21:10:30;3.33;;;1.70;;
20185;SDS011;10252;48.792;8.582;2022-09-09T21:15:31;3.72;;;1.45;;
20185;SDS011;10252;48.792;8.582;2022-09-09T21:20:32;3.15;;;1.40;;
20185;SDS011;10252;48.792;8.582;2022-09-09T21:25:33;2.55;;;1.50;;
20185;SDS011;10252;48.792;8.582;2022-09-09T21:30:34;3.72;;;2.05;;
20185;SDS011;10252;48.792;8.582;2022-09-09T21:35:37;3.78;;;2.47;;
20185;SDS011;10252;48.792;8.582;2022-09-09T21:40:41;3.97;;;2.10;;
20185;SDS011;10252;48.792;8.582;2022-09-09T21:45:42;3.13;;;2.45;;
20185;SDS011;10252;48.792;8.582;2022-09-09T21:50:45;6.18;;;2.63;;
20185;SDS011;10252;48.792;8.582;2022-09-09T21:55:46;3.88;;;2.45;;
20185;SDS011;10252;48.792;8.582;2022-09-09T22:00:48;4.18;;;2.70;;
20185;SDS011;10252;48.792;8.582;2022-09-09T22:05:49;5.28;;;2.90;;
20185;SDS011;10252;48.792;8.582;2022-09-09T22:10:50;2.33;;;1.70;;
20185;SDS011;10252;48.792;8.582;2022-09-09T22:15:51;4.85;;;1.20;;
20185;SDS011;10252;48.792;8.582;2022-09-09T22:20:53;1.67;;;0.70;;
20185;SDS011;10252;48.792;8.582;2022-09-09T22:25:54;3.45;;;0.60;;
20185;SDS011;10252;48.792;8.582;2022-09-09T22:30:56;2.13;;;0.60;;
20185;SDS011;10252;48.792;8.582;2022-09-09T22:35:57;0.85;;;0.50;;
20185;SDS011;10252;48.792;8.582;2022-09-09T22:40:58;2.70;;;0.90;;
20185;SDS011;10252;48.792;8.582;2022-09-09T22:46:00;3.53;;;2.20;;
20185;SDS011;10252;48.792;8.582;2022-09-09T22:51:02;2.90;;;1.27;;
20185;SDS011;10252;48.792;8.582;2022-09-09T22:56:05;2.00;;;1.05;;
20185;SDS011;10252;48.792;8.582;2022-09-09T23:01:09;3.97;;;1.00;;
20185;SDS011;10252;48.792;8.582;2022-09-09T23:06:11;2.50;;;0.95;;
20185;SDS011;10252;48.792;8.582;2022-09-09T23:11:16;3.40;;;0.90;;
20185;SDS011;10252;48.792;8.582;2022-09-09T23:16:22;3.40;;;1.20;;
20185;SDS011;10252;48.792;8.582;2022-09-09T23:21:23;3.13;;;1.40;;
20185;SDS011;10252;48.792;8.582;2022-09-09T23:26:27;4.53;;;1.20;;
20185;SDS011;10252;48.792;8.582;2022-09-09T23:31:30;2.88;;;1.00;;
20185;SDS011;10252;48.792;8.582;2022-09-09T23:36:32;5.20;;;1.13;;
20185;SDS011;10252;48.792;8.582;2022-09-09T23:41:33;2.75;;;1.20;;
20185;SDS011;10252;48.792;8.582;2022-09-09T23:46:34;4.20;;;1.10;;
20185;SDS011;10252;48.792;8.582;2022-09-09T23:51:36;2.22;;;0.93;;
20185;SDS011;10252;48.792;8.582;2022-09-09T23:56:39;3.45;;;1.10;;
